West Melbourne, Florida
Current Conditions -  °F | °C
As of 8:53 AM on Sunday 23 Nov 2014 (Local Time) from KMLB Reporting Station
Haze Haze  
Wind Chill: 25°   Ceiling: 1300
Heat Index: 26°   Visibility: 4mi
Dew Point: 23°   Wind: 14mph
Humidity: 88%   Direction: 150°SSE
Pressure: 30.03"   Gusts: 21mph
Location:  28.0786°N, 80.6027°W
Report Text: KMLB 231353Z 15012G18KT 4SM BR BKN013 BKN018 BKN024 25/23 A3003 RMK AO2 SLP168 T02500228
Loading
Personal Weather Stations






























Interactive Weather Map New forecast layout! Learn more

10-Day Weather Forecast

Advertisements
Track Severe Weather on mobile